sensor_id;sensor_type;location;lat;lon;timestamp;temperature;humidity
1976;DHT22;988;48.016;7.800;2022-12-07T00:00:28;6.00;99.90
1976;DHT22;988;48.016;7.800;2022-12-07T00:02:53;6.00;99.90
1976;DHT22;988;48.016;7.800;2022-12-07T00:05:19;5.80;99.90
1976;DHT22;988;48.016;7.800;2022-12-07T00:07:44;5.80;99.90
1976;DHT22;988;48.016;7.800;2022-12-07T00:10:10;5.80;99.90
1976;DHT22;988;48.016;7.800;2022-12-07T00:12:36;5.90;99.90
1976;DHT22;988;48.016;7.800;2022-12-07T00:15:01;5.90;99.90
1976;DHT22;988;48.016;7.800;2022-12-07T00:17:27;5.90;99.90
1976;DHT22;988;48.016;7.800;2022-12-07T00:19:53;6.00;99.90
1976;DHT22;988;48.016;7.800;2022-12-07T00:22:18;6.10;99.90
1976;DHT22;988;48.016;7.800;2022-12-07T00:24:44;6.10;99.90
1976;DHT22;988;48.016;7.800;2022-12-07T00:27:09;6.10;99.90
1976;DHT22;988;48.016;7.800;2022-12-07T00:29:35;5.90;99.90
1976;DHT22;988;48.016;7.800;2022-12-07T00:32:02;5.80;99.90
1976;DHT22;988;48.016;7.800;2022-12-07T00:34:28;5.80;99.90
1976;DHT22;988;48.016;7.800;2022-12-07T00:36:54;5.70;99.90
1976;DHT22;988;48.016;7.800;2022-12-07T00:39:19;5.70;99.90
1976;DHT22;988;48.016;7.800;2022-12-07T00:41:45;5.80;99.90
1976;DHT22;988;48.016;7.800;2022-12-07T00:44:11;5.80;99.90
1976;DHT22;988;48.016;7.800;2022-12-07T00:46:36;5.80;99.90
1976;DHT22;988;48.016;7.800;2022-12-07T00:49:02;5.80;99.90
1976;DHT22;988;48.016;7.800;2022-12-07T00:51:28;5.70;99.90
1976;DHT22;988;48.016;7.800;2022-12-07T00:53:54;5.50;99.90
1976;DHT22;988;48.016;7.800;2022-12-07T00:56:24;5.50;99.90
1976;DHT22;988;48.016;7.800;2022-12-07T00:58:55;5.50;99.90
1976;DHT22;988;48.016;7.800;2022-12-07T01:01:22;5.50;99.90
1976;DHT22;988;48.016;7.800;2022-12-07T01:03:48;5.80;99.90
1976;DHT22;988;48.016;7.800;2022-12-07T01:06:18;6.00;99.90
1976;DHT22;988;48.016;7.800;2022-12-07T01:08:44;6.10;99.90
1976;DHT22;988;48.016;7.800;2022-12-07T01:11:12;6.10;99.90
1976;DHT22;988;48.016;7.800;2022-12-07T01:13:38;6.00;99.90
1976;DHT22;988;48.016;7.800;2022-12-07T01:16:06;6.00;99.90
1976;DHT22;988;48.016;7.800;2022-12-07T01:18:34;5.80;99.90
1976;DHT22;988;48.016;7.800;2022-12-07T01:21:05;5.80;99.90
1976;DHT22;988;48.016;7.800;2022-12-07T01:23:32;5.90;99.90
1976;DHT22;988;48.016;7.800;2022-12-07T01:26:00;6.00;99.90
1976;DHT22;988;48.016;7.800;2022-12-07T01:28:26;5.90;99.90
1976;DHT22;988;48.016;7.800;2022-12-07T01:31:13;5.90;99.90
1976;DHT22;988;48.016;7.800;2022-12-07T01:33:40;5.90;99.90
1976;DHT22;988;48.016;7.800;2022-12-07T01:36:07;5.90;99.90
1976;DHT22;988;48.016;7.800;2022-12-07T01:38:34;6.00;99.90
1976;DHT22;988;48.016;7.800;2022-12-07T01:41:01;6.00;99.90
1976;DHT22;988;48.016;7.800;2022-12-07T01:43:28;6.00;99.90
1976;DHT22;988;48.016;7.800;2022-12-07T01:45:55;5.80;99.90
1976;DHT22;988;48.016;7.800;2022-12-07T01:48:26;6.00;99.90
1976;DHT22;988;48.016;7.800;2022-12-07T01:50:53;6.10;99.90
1976;DHT22;988;48.016;7.800;2022-12-07T01:53:24;6.10;99.90
1976;DHT22;988;48.016;7.800;2022-12-07T01:55:52;6.00;99.90
1976;DHT22;988;48.016;7.800;2022-12-07T01:58:18;5.90;99.90
1976;DHT22;988;48.016;7.800;2022-12-07T02:00:44;6.00;99.90
1976;DHT22;988;48.016;7.800;2022-12-07T02:03:16;5.90;99.90
1976;DHT22;988;48.016;7.800;2022-12-07T02:05:43;5.90;99.90
1976;DHT22;988;48.016;7.800;2022-12-07T02:08:09;5.90;99.90
1976;DHT22;988;48.016;7.800;2022-12-07T02:10:36;5.80;99.90
1976;DHT22;988;48.016;7.800;2022-12-07T02:13:10;5.80;99.90
1976;DHT22;988;48.016;7.800;2022-12-07T02:15:51;5.80;99.90
1976;DHT22;988;48.016;7.800;2022-12-07T02:18:36;5.70;99.90
1976;DHT22;988;48.016;7.800;2022-12-07T02:21:13;5.60;99.90
1976;DHT22;988;48.016;7.800;2022-12-07T02:29:30;5.40;99.90
1976;DHT22;988;48.016;7.800;2022-12-07T02:32:08;5.40;99.90
1976;DHT22;988;48.016;7.800;2022-12-07T02:34:53;5.30;99.90
1976;DHT22;988;48.016;7.800;2022-12-07T02:40:35;5.40;99.90
1976;DHT22;988;48.016;7.800;2022-12-07T02:43:11;5.20;99.90
1976;DHT22;988;48.016;7.800;2022-12-07T02:45:40;5.10;99.90
1976;DHT22;988;48.016;7.800;2022-12-07T02:48:08;5.30;99.90
1976;DHT22;988;48.016;7.800;2022-12-07T02:50:36;5.40;99.90
1976;DHT22;988;48.016;7.800;2022-12-07T02:53:02;5.20;99.90
1976;DHT22;988;48.016;7.800;2022-12-07T02:55:36;5.20;99.90
1976;DHT22;988;48.016;7.800;2022-12-07T02:58:13;5.40;99.90
1976;DHT22;988;48.016;7.800;2022-12-07T03:00:54;5.40;99.90
1976;DHT22;988;48.016;7.800;2022-12-07T03:03:22;5.60;99.90
1976;DHT22;988;48.016;7.800;2022-12-07T03:08:22;5.60;99.90
1976;DHT22;988;48.016;7.800;2022-12-07T03:16:07;5.60;99.90
1976;DHT22;988;48.016;7.800;2022-12-07T03:18:43;5.60;99.90
1976;DHT22;988;48.016;7.800;2022-12-07T03:21:13;5.60;99.90
1976;DHT22;988;48.016;7.800;2022-12-07T03:23:40;5.70;99.90
1976;DHT22;988;48.016;7.800;2022-12-07T03:26:10;5.50;99.90
1976;DHT22;988;48.016;7.800;2022-12-07T03:28:43;5.50;99.90
1976;DHT22;988;48.016;7.800;2022-12-07T03:31:43;5.60;99.90
1976;DHT22;988;48.016;7.800;2022-12-07T03:34:29;5.50;99.90
1976;DHT22;988;48.016;7.800;2022-12-07T03:37:11;5.40;99.90
1976;DHT22;988;48.016;7.800;2022-12-07T03:42:14;5.50;99.90
1976;DHT22;988;48.016;7.800;2022-12-07T03:44:41;5.40;99.90
1976;DHT22;988;48.016;7.800;2022-12-07T03:49:55;5.50;99.90
1976;DHT22;988;48.016;7.800;2022-12-07T03:55:12;5.40;99.90
1976;DHT22;988;48.016;7.800;2022-12-07T03:57:41;5.50;99.90
1976;DHT22;988;48.016;7.800;2022-12-07T04:00:09;5.50;99.90
1976;DHT22;988;48.016;7.800;2022-12-07T04:02:36;5.50;99.90
1976;DHT22;988;48.016;7.800;2022-12-07T04:05:03;5.40;99.90
1976;DHT22;988;48.016;7.800;2022-12-07T04:07:28;5.30;99.90
1976;DHT22;988;48.016;7.800;2022-12-07T04:09:54;5.40;99.90
1976;DHT22;988;48.016;7.800;2022-12-07T04:12:23;5.40;99.90
1976;DHT22;988;48.016;7.800;2022-12-07T04:14:48;5.30;99.90
1976;DHT22;988;48.016;7.800;2022-12-07T04:17:14;5.20;99.90
1976;DHT22;988;48.016;7.800;2022-12-07T04:19:40;5.10;99.90
1976;DHT22;988;48.016;7.800;2022-12-07T04:22:06;5.30;99.90
1976;DHT22;988;48.016;7.800;2022-12-07T04:24:33;5.40;99.90
1976;DHT22;988;48.016;7.800;2022-12-07T04:26:58;5.40;99.90
1976;DHT22;988;48.016;7.800;2022-12-07T04:29:25;5.40;99.90
1976;DHT22;988;48.016;7.800;2022-12-07T04:31:50;5.30;99.90
1976;DHT22;988;48.016;7.800;2022-12-07T04:34:16;5.10;99.90
1976;DHT22;988;48.016;7.800;2022-12-07T04:36:43;5.00;99.90
1976;DHT22;988;48.016;7.800;2022-12-07T04:39:24;5.10;99.90
1976;DHT22;988;48.016;7.800;2022-12-07T04:41:50;5.30;99.90
1976;DHT22;988;48.016;7.800;2022-12-07T04:44:17;5.30;99.90
1976;DHT22;988;48.016;7.800;2022-12-07T04:46:43;5.20;99.90
1976;DHT22;988;48.016;7.800;2022-12-07T04:49:15;5.10;99.90
1976;DHT22;988;48.016;7.800;2022-12-07T04:51:42;5.00;99.90
1976;DHT22;988;48.016;7.800;2022-12-07T04:54:08;4.90;99.90
1976;DHT22;988;48.016;7.800;2022-12-07T04:56:33;4.90;99.90
1976;DHT22;988;48.016;7.800;2022-12-07T04:59:01;4.90;99.90
1976;DHT22;988;48.016;7.800;2022-12-07T05:01:26;4.80;99.90
1976;DHT22;988;48.016;7.800;2022-12-07T05:03:52;4.70;99.90
1976;DHT22;988;48.016;7.800;2022-12-07T05:06:18;4.70;99.90
1976;DHT22;988;48.016;7.800;2022-12-07T05:08:44;4.70;99.90
1976;DHT22;988;48.016;7.800;2022-12-07T05:11:10;4.90;99.90
1976;DHT22;988;48.016;7.800;2022-12-07T05:13:56;4.80;99.90
1976;DHT22;988;48.016;7.800;2022-12-07T05:16:21;5.00;99.90
1976;DHT22;988;48.016;7.800;2022-12-07T05:18:47;5.10;99.90
1976;DHT22;988;48.016;7.800;2022-12-07T05:21:12;5.10;99.90
1976;DHT22;988;48.016;7.800;2022-12-07T05:23:38;5.00;99.90
1976;DHT22;988;48.016;7.800;2022-12-07T05:26:04;4.90;99.90
1976;DHT22;988;48.016;7.800;2022-12-07T05:28:29;4.80;99.90
1976;DHT22;988;48.016;7.800;2022-12-07T05:30:56;4.60;99.90
1976;DHT22;988;48.016;7.800;2022-12-07T05:33:21;4.60;99.90
1976;DHT22;988;48.016;7.800;2022-12-07T05:35:47;4.60;99.90
1976;DHT22;988;48.016;7.800;2022-12-07T05:38:12;4.60;99.90
1976;DHT22;988;48.016;7.800;2022-12-07T05:40:38;4.50;99.90
1976;DHT22;988;48.016;7.800;2022-12-07T05:43:03;4.40;99.90
1976;DHT22;988;48.016;7.800;2022-12-07T05:45:29;4.30;99.90
1976;DHT22;988;48.016;7.800;2022-12-07T05:47:55;4.30;99.90
1976;DHT22;988;48.016;7.800;2022-12-07T05:50:20;4.30;99.90
1976;DHT22;988;48.016;7.800;2022-12-07T05:52:46;4.20;99.90
1976;DHT22;988;48.016;7.800;2022-12-07T05:55:11;4.20;99.90
1976;DHT22;988;48.016;7.800;2022-12-07T05:57:37;4.20;99.90
1976;DHT22;988;48.016;7.800;2022-12-07T06:00:04;4.10;99.90
1976;DHT22;988;48.016;7.800;2022-12-07T06:02:30;4.00;99.90
1976;DHT22;988;48.016;7.800;2022-12-07T06:04:55;3.90;99.90
1976;DHT22;988;48.016;7.800;2022-12-07T06:07:21;4.10;99.90
1976;DHT22;988;48.016;7.800;2022-12-07T06:09:47;4.20;99.90
1976;DHT22;988;48.016;7.800;2022-12-07T06:12:13;4.40;99.90
1976;DHT22;988;48.016;7.800;2022-12-07T06:14:57;4.50;99.90
1976;DHT22;988;48.016;7.800;2022-12-07T06:17:23;4.60;99.90
1976;DHT22;988;48.016;7.800;2022-12-07T06:19:49;4.40;99.90
1976;DHT22;988;48.016;7.800;2022-12-07T06:22:14;4.30;99.90
1976;DHT22;988;48.016;7.800;2022-12-07T06:24:41;4.30;99.90
1976;DHT22;988;48.016;7.800;2022-12-07T06:27:07;4.20;99.90
1976;DHT22;988;48.016;7.800;2022-12-07T06:29:33;4.10;99.90
1976;DHT22;988;48.016;7.800;2022-12-07T06:31:59;3.90;99.90
1976;DHT22;988;48.016;7.800;2022-12-07T06:34:26;3.90;99.90
1976;DHT22;988;48.016;7.800;2022-12-07T06:36:52;3.80;99.90
1976;DHT22;988;48.016;7.800;2022-12-07T06:39:22;3.50;99.90
1976;DHT22;988;48.016;7.800;2022-12-07T06:41:50;3.40;99.90
1976;DHT22;988;48.016;7.800;2022-12-07T06:44:17;3.20;99.90
1976;DHT22;988;48.016;7.800;2022-12-07T06:46:43;3.20;99.90
1976;DHT22;988;48.016;7.800;2022-12-07T06:49:09;3.20;99.90
1976;DHT22;988;48.016;7.800;2022-12-07T06:51:35;3.20;99.90
1976;DHT22;988;48.016;7.800;2022-12-07T06:54:02;3.10;99.90
1976;DHT22;988;48.016;7.800;2022-12-07T06:56:29;3.00;99.90
1976;DHT22;988;48.016;7.800;2022-12-07T06:58:55;2.80;99.90
1976;DHT22;988;48.016;7.800;2022-12-07T07:01:22;2.80;99.90
1976;DHT22;988;48.016;7.800;2022-12-07T07:03:47;2.90;99.90
1976;DHT22;988;48.016;7.800;2022-12-07T07:06:13;2.90;99.90
1976;DHT22;988;48.016;7.800;2022-12-07T07:08:40;2.90;99.90
1976;DHT22;988;48.016;7.800;2022-12-07T07:11:07;3.00;99.90
1976;DHT22;988;48.016;7.800;2022-12-07T07:13:32;3.10;99.90
1976;DHT22;988;48.016;7.800;2022-12-07T07:15:58;3.30;99.90
1976;DHT22;988;48.016;7.800;2022-12-07T07:18:24;3.40;99.90
1976;DHT22;988;48.016;7.800;2022-12-07T07:20:51;3.40;99.90
1976;DHT22;988;48.016;7.800;2022-12-07T07:23:17;3.50;99.90
1976;DHT22;988;48.016;7.800;2022-12-07T07:25:42;3.60;99.90
1976;DHT22;988;48.016;7.800;2022-12-07T07:28:08;3.50;99.90
1976;DHT22;988;48.016;7.800;2022-12-07T07:30:33;3.30;99.90
1976;DHT22;988;48.016;7.800;2022-12-07T07:33:01;3.10;99.90
1976;DHT22;988;48.016;7.800;2022-12-07T07:35:28;3.20;99.90
1976;DHT22;988;48.016;7.800;2022-12-07T07:37:54;3.20;99.90
1976;DHT22;988;48.016;7.800;2022-12-07T07:40:20;3.20;99.90
1976;DHT22;988;48.016;7.800;2022-12-07T07:42:53;3.30;99.90
1976;DHT22;988;48.016;7.800;2022-12-07T07:45:20;3.30;99.90
1976;DHT22;988;48.016;7.800;2022-12-07T07:47:46;3.40;99.90
1976;DHT22;988;48.016;7.800;2022-12-07T07:50:12;3.60;99.90
1976;DHT22;988;48.016;7.800;2022-12-07T07:52:38;4.00;99.90
1976;DHT22;988;48.016;7.800;2022-12-07T07:55:04;4.10;99.90
1976;DHT22;988;48.016;7.800;2022-12-07T07:57:29;4.00;99.90
1976;DHT22;988;48.016;7.800;2022-12-07T07:59:55;3.80;99.90
1976;DHT22;988;48.016;7.800;2022-12-07T08:02:21;4.10;99.90
1976;DHT22;988;48.016;7.800;2022-12-07T08:04:47;4.10;99.90
1976;DHT22;988;48.016;7.800;2022-12-07T08:07:13;3.80;99.90
1976;DHT22;988;48.016;7.800;2022-12-07T08:09:39;3.80;99.90
1976;DHT22;988;48.016;7.800;2022-12-07T08:12:05;3.80;99.90
1976;DHT22;988;48.016;7.800;2022-12-07T08:14:31;3.90;99.90
1976;DHT22;988;48.016;7.800;2022-12-07T08:16:57;4.00;99.90
1976;DHT22;988;48.016;7.800;2022-12-07T08:19:23;4.20;99.90
1976;DHT22;988;48.016;7.800;2022-12-07T08:21:49;4.30;99.90
1976;DHT22;988;48.016;7.800;2022-12-07T08:24:15;4.30;99.90
1976;DHT22;988;48.016;7.800;2022-12-07T08:26:41;4.40;99.90
1976;DHT22;988;48.016;7.800;2022-12-07T08:29:07;4.50;99.90
1976;DHT22;988;48.016;7.800;2022-12-07T08:31:32;4.90;99.90
1976;DHT22;988;48.016;7.800;2022-12-07T08:33:58;5.30;99.90
1976;DHT22;988;48.016;7.800;2022-12-07T08:36:24;5.70;99.90
1976;DHT22;988;48.016;7.800;2022-12-07T08:38:50;5.90;99.90
1976;DHT22;988;48.016;7.800;2022-12-07T08:41:15;6.20;99.90
1976;DHT22;988;48.016;7.800;2022-12-07T08:43:41;6.30;99.90
1976;DHT22;988;48.016;7.800;2022-12-07T08:46:11;6.70;99.90
1976;DHT22;988;48.016;7.800;2022-12-07T08:48:44;6.60;99.90
1976;DHT22;988;48.016;7.800;2022-12-07T08:51:11;6.40;99.90
1976;DHT22;988;48.016;7.800;2022-12-07T08:53:38;6.40;99.90
1976;DHT22;988;48.016;7.800;2022-12-07T08:56:05;6.50;99.90
1976;DHT22;988;48.016;7.800;2022-12-07T08:58:33;6.40;99.90
1976;DHT22;988;48.016;7.800;2022-12-07T09:00:59;6.10;99.90
1976;DHT22;988;48.016;7.800;2022-12-07T09:03:47;6.10;99.90
1976;DHT22;988;48.016;7.800;2022-12-07T09:06:12;6.20;99.90
1976;DHT22;988;48.016;7.800;2022-12-07T09:08:45;6.50;99.90
1976;DHT22;988;48.016;7.800;2022-12-07T09:11:11;7.00;99.90
1976;DHT22;988;48.016;7.800;2022-12-07T09:13:36;7.30;99.90
1976;DHT22;988;48.016;7.800;2022-12-07T09:16:02;7.90;99.90
1976;DHT22;988;48.016;7.800;2022-12-07T09:18:28;9.60;99.90
1976;DHT22;988;48.016;7.800;2022-12-07T09:20:53;11.60;99.90
1976;DHT22;988;48.016;7.800;2022-12-07T09:23:19;12.90;95.80
1976;DHT22;988;48.016;7.800;2022-12-07T09:25:45;16.20;85.90
1976;DHT22;988;48.016;7.800;2022-12-07T09:28:10;18.50;71.20
1976;DHT22;988;48.016;7.800;2022-12-07T09:30:36;18.10;61.70
1976;DHT22;988;48.016;7.800;2022-12-07T09:33:01;19.80;60.70
1976;DHT22;988;48.016;7.800;2022-12-07T09:35:27;21.40;56.40
1976;DHT22;988;48.016;7.800;2022-12-07T09:37:53;20.60;52.70
1976;DHT22;988;48.016;7.800;2022-12-07T09:40:21;21.00;51.70
1976;DHT22;988;48.016;7.800;2022-12-07T09:42:50;18.70;52.40
1976;DHT22;988;48.016;7.800;2022-12-07T09:45:25;20.00;55.60
1976;DHT22;988;48.016;7.800;2022-12-07T09:47:52;18.70;53.10
1976;DHT22;988;48.016;7.800;2022-12-07T09:50:23;19.90;53.50
1976;DHT22;988;48.016;7.800;2022-12-07T09:52:50;18.80;54.00
1976;DHT22;988;48.016;7.800;2022-12-07T09:55:23;18.90;53.40
1976;DHT22;988;48.016;7.800;2022-12-07T09:57:50;19.50;54.20
1976;DHT22;988;48.016;7.800;2022-12-07T10:00:19;17.90;54.80
1976;DHT22;988;48.016;7.800;2022-12-07T10:02:51;21.00;51.60
1976;DHT22;988;48.016;7.800;2022-12-07T10:07:54;25.60;43.60
1976;DHT22;988;48.016;7.800;2022-12-07T10:10:25;26.40;40.80
1976;DHT22;988;48.016;7.800;2022-12-07T10:15:20;27.70;38.80
1976;DHT22;988;48.016;7.800;2022-12-07T10:17:51;28.50;40.10
1976;DHT22;988;48.016;7.800;2022-12-07T10:20:20;28.70;36.70
1976;DHT22;988;48.016;7.800;2022-12-07T10:23:04;28.90;36.40
1976;DHT22;988;48.016;7.800;2022-12-07T10:25:37;29.70;36.00
1976;DHT22;988;48.016;7.800;2022-12-07T10:28:16;32.50;33.50
1976;DHT22;988;48.016;7.800;2022-12-07T10:31:26;32.30;31.70
1976;DHT22;988;48.016;7.800;2022-12-07T10:33:56;32.00;30.80
1976;DHT22;988;48.016;7.800;2022-12-07T10:36:36;29.70;31.60
1976;DHT22;988;48.016;7.800;2022-12-07T10:39:15;29.80;33.10
1976;DHT22;988;48.016;7.800;2022-12-07T10:42:02;29.10;31.00
1976;DHT22;988;48.016;7.800;2022-12-07T10:44:31;27.80;33.00
1976;DHT22;988;48.016;7.800;2022-12-07T10:52:48;31.60;30.30
1976;DHT22;988;48.016;7.800;2022-12-07T11:03:29;29.20;28.70
1976;DHT22;988;48.016;7.800;2022-12-07T11:06:27;25.80;31.50
1976;DHT22;988;48.016;7.800;2022-12-07T11:11:52;25.80;33.80
1976;DHT22;988;48.016;7.800;2022-12-07T11:17:20;25.20;33.40
1976;DHT22;988;48.016;7.800;2022-12-07T11:26:38;27.70;33.60
1976;DHT22;988;48.016;7.800;2022-12-07T11:31:28;25.40;32.60
1976;DHT22;988;48.016;7.800;2022-12-07T11:34:03;23.80;35.70
1976;DHT22;988;48.016;7.800;2022-12-07T11:36:37;23.30;35.90
1976;DHT22;988;48.016;7.800;2022-12-07T11:39:16;23.00;37.10
1976;DHT22;988;48.016;7.800;2022-12-07T11:41:48;26.20;32.90
1976;DHT22;988;48.016;7.800;2022-12-07T11:44:50;24.20;33.80
1976;DHT22;988;48.016;7.800;2022-12-07T11:47:22;22.20;36.40
1976;DHT22;988;48.016;7.800;2022-12-07T11:49:58;20.80;38.40
1976;DHT22;988;48.016;7.800;2022-12-07T11:52:48;20.00;39.10
1976;DHT22;988;48.016;7.800;2022-12-07T11:57:58;18.40;42.40
1976;DHT22;988;48.016;7.800;2022-12-07T12:00:27;17.80;43.50
1976;DHT22;988;48.016;7.800;2022-12-07T12:03:17;17.70;43.60
1976;DHT22;988;48.016;7.800;2022-12-07T12:05:45;17.20;43.80
1976;DHT22;988;48.016;7.800;2022-12-07T12:08:33;16.50;44.40
1976;DHT22;988;48.016;7.800;2022-12-07T12:16:39;15.20;46.30
1976;DHT22;988;48.016;7.800;2022-12-07T12:19:33;15.00;46.60
1976;DHT22;988;48.016;7.800;2022-12-07T12:22:18;14.70;47.10
1976;DHT22;988;48.016;7.800;2022-12-07T12:24:48;15.10;47.80
1976;DHT22;988;48.016;7.800;2022-12-07T12:27:32;15.10;46.60
1976;DHT22;988;48.016;7.800;2022-12-07T12:30:00;15.00;45.30
1976;DHT22;988;48.016;7.800;2022-12-07T12:32:38;14.30;47.20
1976;DHT22;988;48.016;7.800;2022-12-07T12:37:49;13.90;48.20
1976;DHT22;988;48.016;7.800;2022-12-07T12:42:57;14.10;49.10
1976;DHT22;988;48.016;7.800;2022-12-07T12:45:31;14.10;49.10
1976;DHT22;988;48.016;7.800;2022-12-07T12:50:35;14.00;49.00
1976;DHT22;988;48.016;7.800;2022-12-07T12:53:25;14.20;48.10
1976;DHT22;988;48.016;7.800;2022-12-07T12:56:11;13.70;48.80
1976;DHT22;988;48.016;7.800;2022-12-07T12:58:41;13.90;47.50
1976;DHT22;988;48.016;7.800;2022-12-07T13:04:01;13.60;46.40
1976;DHT22;988;48.016;7.800;2022-12-07T13:08:56;13.20;47.00
1976;DHT22;988;48.016;7.800;2022-12-07T13:11:41;13.00;47.10
1976;DHT22;988;48.016;7.800;2022-12-07T13:14:37;13.20;47.90
1976;DHT22;988;48.016;7.800;2022-12-07T13:20:02;12.70;48.80
1976;DHT22;988;48.016;7.800;2022-12-07T13:22:35;12.10;50.00
1976;DHT22;988;48.016;7.800;2022-12-07T13:28:14;11.60;52.40
1976;DHT22;988;48.016;7.800;2022-12-07T13:31:19;11.60;51.90
1976;DHT22;988;48.016;7.800;2022-12-07T13:33:46;11.50;52.30
1976;DHT22;988;48.016;7.800;2022-12-07T13:36:25;11.40;52.30
1976;DHT22;988;48.016;7.800;2022-12-07T13:38:56;11.40;52.30
1976;DHT22;988;48.016;7.800;2022-12-07T13:41:27;11.30;52.70
1976;DHT22;988;48.016;7.800;2022-12-07T13:44:16;11.00;52.70
1976;DHT22;988;48.016;7.800;2022-12-07T13:47:12;10.70;53.20
1976;DHT22;988;48.016;7.800;2022-12-07T13:49:53;10.60;53.00
1976;DHT22;988;48.016;7.800;2022-12-07T13:52:25;10.40;52.90
1976;DHT22;988;48.016;7.800;2022-12-07T13:57:32;9.70;54.50
1976;DHT22;988;48.016;7.800;2022-12-07T14:00:00;9.60;54.70
1976;DHT22;988;48.016;7.800;2022-12-07T14:02:29;9.20;54.20
1976;DHT22;988;48.016;7.800;2022-12-07T14:05:23;9.00;55.90
1976;DHT22;988;48.016;7.800;2022-12-07T14:08:00;9.10;56.40
1976;DHT22;988;48.016;7.800;2022-12-07T14:10:28;9.10;56.30
1976;DHT22;988;48.016;7.800;2022-12-07T14:12:58;9.10;56.90
1976;DHT22;988;48.016;7.800;2022-12-07T14:15:28;8.90;57.40
1976;DHT22;988;48.016;7.800;2022-12-07T14:17:55;8.80;58.30
1976;DHT22;988;48.016;7.800;2022-12-07T14:20:40;8.70;58.50
1976;DHT22;988;48.016;7.800;2022-12-07T14:23:24;8.70;59.60
1976;DHT22;988;48.016;7.800;2022-12-07T14:25:52;8.70;60.30
1976;DHT22;988;48.016;7.800;2022-12-07T14:28:32;8.80;60.30
1976;DHT22;988;48.016;7.800;2022-12-07T14:30:59;8.70;60.90
1976;DHT22;988;48.016;7.800;2022-12-07T14:33:25;8.70;61.80
1976;DHT22;988;48.016;7.800;2022-12-07T14:35:51;8.80;63.10
1976;DHT22;988;48.016;7.800;2022-12-07T14:38:21;8.70;63.50
1976;DHT22;988;48.016;7.800;2022-12-07T14:40:48;8.40;64.00
1976;DHT22;988;48.016;7.800;2022-12-07T14:43:16;8.20;64.70
1976;DHT22;988;48.016;7.800;2022-12-07T14:45:42;8.20;65.20
1976;DHT22;988;48.016;7.800;2022-12-07T14:48:11;8.20;65.40
1976;DHT22;988;48.016;7.800;2022-12-07T14:50:40;8.10;66.10
1976;DHT22;988;48.016;7.800;2022-12-07T14:53:17;8.10;66.40
1976;DHT22;988;48.016;7.800;2022-12-07T14:55:43;7.90;67.10
1976;DHT22;988;48.016;7.800;2022-12-07T14:58:16;7.90;67.70
1976;DHT22;988;48.016;7.800;2022-12-07T15:00:42;7.90;69.20
1976;DHT22;988;48.016;7.800;2022-12-07T15:03:07;7.90;68.60
1976;DHT22;988;48.016;7.800;2022-12-07T15:05:33;7.90;68.30
1976;DHT22;988;48.016;7.800;2022-12-07T15:07:59;7.80;68.90
1976;DHT22;988;48.016;7.800;2022-12-07T15:10:29;7.60;69.80
1976;DHT22;988;48.016;7.800;2022-12-07T15:13:03;7.60;70.70
1976;DHT22;988;48.016;7.800;2022-12-07T15:15:48;7.70;71.00
1976;DHT22;988;48.016;7.800;2022-12-07T15:18:14;7.60;71.60
1976;DHT22;988;48.016;7.800;2022-12-07T15:20:40;7.10;72.50
1976;DHT22;988;48.016;7.800;2022-12-07T15:23:06;7.00;73.20
1976;DHT22;988;48.016;7.800;2022-12-07T15:25:31;7.00;74.00
1976;DHT22;988;48.016;7.800;2022-12-07T15:27:57;6.90;74.50
1976;DHT22;988;48.016;7.800;2022-12-07T15:30:22;6.90;74.60
1976;DHT22;988;48.016;7.800;2022-12-07T15:32:51;6.70;74.90
1976;DHT22;988;48.016;7.800;2022-12-07T15:35:17;6.60;75.90
1976;DHT22;988;48.016;7.800;2022-12-07T15:37:43;6.60;76.20
1976;DHT22;988;48.016;7.800;2022-12-07T15:40:09;6.60;76.40
1976;DHT22;988;48.016;7.800;2022-12-07T15:42:35;6.30;76.50
1976;DHT22;988;48.016;7.800;2022-12-07T15:45:01;6.10;77.20
1976;DHT22;988;48.016;7.800;2022-12-07T15:47:31;5.90;78.00
1976;DHT22;988;48.016;7.800;2022-12-07T15:49:56;5.70;79.20
1976;DHT22;988;48.016;7.800;2022-12-07T15:52:22;5.50;79.80
1976;DHT22;988;48.016;7.800;2022-12-07T15:54:47;5.50;79.80
1976;DHT22;988;48.016;7.800;2022-12-07T15:57:13;5.50;80.80
1976;DHT22;988;48.016;7.800;2022-12-07T15:59:39;5.20;81.20
1976;DHT22;988;48.016;7.800;2022-12-07T16:02:04;5.00;82.30
1976;DHT22;988;48.016;7.800;2022-12-07T16:04:30;4.90;82.70
1976;DHT22;988;48.016;7.800;2022-12-07T16:06:56;4.80;84.60
1976;DHT22;988;48.016;7.800;2022-12-07T16:09:22;4.60;86.30
1976;DHT22;988;48.016;7.800;2022-12-07T16:11:48;4.50;88.20
1976;DHT22;988;48.016;7.800;2022-12-07T16:14:15;4.50;88.40
1976;DHT22;988;48.016;7.800;2022-12-07T16:16:41;4.40;90.30
1976;DHT22;988;48.016;7.800;2022-12-07T16:19:07;4.10;91.50
1976;DHT22;988;48.016;7.800;2022-12-07T16:21:33;3.90;92.50
1976;DHT22;988;48.016;7.800;2022-12-07T16:23:59;3.80;93.80
1976;DHT22;988;48.016;7.800;2022-12-07T16:26:25;3.60;95.00
1976;DHT22;988;48.016;7.800;2022-12-07T16:28:52;3.50;97.10
1976;DHT22;988;48.016;7.800;2022-12-07T16:31:20;3.40;98.80
1976;DHT22;988;48.016;7.800;2022-12-07T16:33:45;3.30;99.90
1976;DHT22;988;48.016;7.800;2022-12-07T16:36:12;3.20;99.90
1976;DHT22;988;48.016;7.800;2022-12-07T16:38:41;3.10;99.90
1976;DHT22;988;48.016;7.800;2022-12-07T16:41:22;3.10;99.90
1976;DHT22;988;48.016;7.800;2022-12-07T16:43:48;3.10;99.90
1976;DHT22;988;48.016;7.800;2022-12-07T16:46:14;3.20;99.90
1976;DHT22;988;48.016;7.800;2022-12-07T16:49:12;3.10;99.90
1976;DHT22;988;48.016;7.800;2022-12-07T16:51:38;2.90;99.90
1976;DHT22;988;48.016;7.800;2022-12-07T16:54:04;2.80;99.90
1976;DHT22;988;48.016;7.800;2022-12-07T16:56:30;2.90;99.90
1976;DHT22;988;48.016;7.800;2022-12-07T16:58:58;3.00;99.90
1976;DHT22;988;48.016;7.800;2022-12-07T17:01:23;2.90;99.90
1976;DHT22;988;48.016;7.800;2022-12-07T17:03:50;2.80;99.90
1976;DHT22;988;48.016;7.800;2022-12-07T17:06:18;2.70;99.90
1976;DHT22;988;48.016;7.800;2022-12-07T17:08:44;2.60;99.90
1976;DHT22;988;48.016;7.800;2022-12-07T17:11:14;2.60;99.90
1976;DHT22;988;48.016;7.800;2022-12-07T17:13:40;2.60;99.90
1976;DHT22;988;48.016;7.800;2022-12-07T17:16:25;2.60;99.90
1976;DHT22;988;48.016;7.800;2022-12-07T17:18:51;2.70;99.90
1976;DHT22;988;48.016;7.800;2022-12-07T17:21:17;2.80;99.90
1976;DHT22;988;48.016;7.800;2022-12-07T17:23:43;2.90;99.90
1976;DHT22;988;48.016;7.800;2022-12-07T17:26:11;2.90;99.90
1976;DHT22;988;48.016;7.800;2022-12-07T17:28:38;3.00;99.90
1976;DHT22;988;48.016;7.800;2022-12-07T17:31:06;3.10;99.90
1976;DHT22;988;48.016;7.800;2022-12-07T17:33:32;3.10;99.90
1976;DHT22;988;48.016;7.800;2022-12-07T17:35:58;3.00;99.90
1976;DHT22;988;48.016;7.800;2022-12-07T17:38:24;2.90;99.90
1976;DHT22;988;48.016;7.800;2022-12-07T17:40:50;3.00;99.90
1976;DHT22;988;48.016;7.800;2022-12-07T17:43:15;2.70;99.90
1976;DHT22;988;48.016;7.800;2022-12-07T17:45:41;2.70;99.90
1976;DHT22;988;48.016;7.800;2022-12-07T17:48:06;2.70;99.90
1976;DHT22;988;48.016;7.800;2022-12-07T17:50:32;2.70;99.90
1976;DHT22;988;48.016;7.800;2022-12-07T17:53:33;2.60;99.90
1976;DHT22;988;48.016;7.800;2022-12-07T17:55:58;2.70;99.90
1976;DHT22;988;48.016;7.800;2022-12-07T17:58:24;2.90;99.90
1976;DHT22;988;48.016;7.800;2022-12-07T18:00:49;3.20;99.90
1976;DHT22;988;48.016;7.800;2022-12-07T18:03:15;3.40;99.90
1976;DHT22;988;48.016;7.800;2022-12-07T18:05:42;3.40;99.90
1976;DHT22;988;48.016;7.800;2022-12-07T18:08:09;3.30;99.90
1976;DHT22;988;48.016;7.800;2022-12-07T18:10:35;3.20;99.90
1976;DHT22;988;48.016;7.800;2022-12-07T18:13:00;3.20;99.90
1976;DHT22;988;48.016;7.800;2022-12-07T18:16:07;3.20;99.90